Iona Mcallister — WDD4840 — position and weather

sailwx.info

Track history (hours):
 
Tides and Currents Weather Stations Pressure Air Temp Water Temp Dewpoint Dewpoint Depression Visibility Wind Speed Wind Dir Waves Ship Positions

Iona Mcallister

Owner: McAllister Towing & Transportation Co. Inc., Staten Island, NY. More information available from US FCC via Universal Licensing System and Coast Guard Vessel Documentation Center.

Last reported at 2015-Jan-29 05:19 UTC. Time now 2015-Jan-29 06:27 UTC.
Position N 41°38' W 070°55'.

Length 36 m.

Type: Towing. MMSI: 367149890.

Date/timePositionNaut miles runAvg speedWind from/ knotsBaromVisibWave heightAir tempDewpointWater temp
2015-Jan-29 05:19N 41°38' W 070°55'  
2015-Jan-23 07:33N 41°38' W 070°55'0 0.0
2015-Jan-21 23:29N 41°38' W 070°55'0 0.0
2015-Jan-21 22:44N 41°38' W 070°55'0 0.0
2015-Jan-21 22:32N 41°38' W 070°55'16 0.5
2015-Jan-20 17:20N 41°26' W 071°08'7 8.2
2015-Jan-20 16:28N 41°32' W 071°13'8 8.7
2015-Jan-20 15:34N 41°40' W 071°12'2 0.9
2015-Jan-20 13:30N 41°42' W 071°11'0 0.0
2015-Jan-20 12:30N 41°42' W 071°11'0 0.0
2015-Jan-20 11:18N 41°42' W 071°11'0 0.0
2015-Jan-20 10:30N 41°42' W 071°11'0 0.0
2015-Jan-20 09:24N 41°42' W 071°11'0 0.0
2015-Jan-20 08:18N 41°42' W 071°11'0 0.0
2015-Jan-20 07:33N 41°42' W 071°11'0 0.0
2015-Jan-20 06:18N 41°42' W 071°11'0 0.0
2015-Jan-20 04:21N 41°42' W 071°11'0 0.0
2015-Jan-20 03:18N 41°42' W 071°11'0 0.0
2015-Jan-19 21:30N 41°42' W 071°11'0 0.0
2015-Jan-19 19:24N 41°42' W 071°11'0 0.0
2015-Jan-19 18:24N 41°42' W 071°11'0 0.0
2015-Jan-19 16:24N 41°42' W 071°11'0 0.0
2015-Jan-19 15:33N 41°42' W 071°11'0 0.0
2015-Jan-19 14:20N 41°42' W 071°11'0 0.0
2015-Jan-19 13:32N 41°42' W 071°11'0 0.0
2015-Jan-19 12:08N 41°42' W 071°11'0 0.0
2015-Jan-19 10:32N 41°42' W 071°11'  
Track history (hours):
 
Tides and Currents Weather Stations Pressure Air Temp Water Temp Dewpoint Dewpoint Depression Visibility Wind Speed Wind Dir Waves Ship Positions

Iona Mcallister

Owner: McAllister Towing & Transportation Co. Inc., Staten Island, NY. More information available from US FCC via Universal Licensing System and Coast Guard Vessel Documentation Center.

Last reported at 2015-Jan-29 05:19 UTC. Time now 2015-Jan-29 06:27 UTC.
Position N 41°38' W 070°55'.

Length 36 m.

Type: Towing. MMSI: 367149890.

Date/timePositionNaut miles runAvg speedWind from/ knotsBaromVisibWave heightAir tempDewpointWater temp
2015-Jan-29 05:19N 41°38' W 070°55'  
2015-Jan-23 07:33N 41°38' W 070°55'0 0.0
2015-Jan-21 23:29N 41°38' W 070°55'0 0.0
2015-Jan-21 22:44N 41°38' W 070°55'0 0.0
2015-Jan-21 22:32N 41°38' W 070°55'16 0.5
2015-Jan-20 17:20N 41°26' W 071°08'7 8.2
2015-Jan-20 16:28N 41°32' W 071°13'8 8.7
2015-Jan-20 15:34N 41°40' W 071°12'2 0.9
2015-Jan-20 13:30N 41°42' W 071°11'0 0.0
2015-Jan-20 12:30N 41°42' W 071°11'0 0.0
2015-Jan-20 11:18N 41°42' W 071°11'0 0.0
2015-Jan-20 10:30N 41°42' W 071°11'0 0.0
2015-Jan-20 09:24N 41°42' W 071°11'0 0.0
2015-Jan-20 08:18N 41°42' W 071°11'0 0.0
2015-Jan-20 07:33N 41°42' W 071°11'0 0.0
2015-Jan-20 06:18N 41°42' W 071°11'0 0.0
2015-Jan-20 04:21N 41°42' W 071°11'0 0.0
2015-Jan-20 03:18N 41°42' W 071°11'0 0.0
2015-Jan-19 21:30N 41°42' W 071°11'0 0.0
2015-Jan-19 19:24N 41°42' W 071°11'0 0.0
2015-Jan-19 18:24N 41°42' W 071°11'0 0.0
2015-Jan-19 16:24N 41°42' W 071°11'0 0.0
2015-Jan-19 15:33N 41°42' W 071°11'0 0.0
2015-Jan-19 14:20N 41°42' W 071°11'0 0.0
2015-Jan-19 13:32N 41°42' W 071°11'0 0.0
2015-Jan-19 12:08N 41°42' W 071°11'0 0.0
2015-Jan-19 10:32N 41°42' W 071°11'  

Dump ship's entire track history